Archival Weather

Václav Havel Intl Apt

Prague, Czechia (LKPR)

Report from: Friday, May 26, 2023 10:30 PM CEST
Current time: Sunday, July 14, 2024 12:18 PM CEST

Current weather – Weather history – Daily summaries
Weather forecast

Temperature12.0°C (53.6°F)
Dew point4.0°C (39.2°F)
Winds 6 kts (3.1 m/s, 6.9 mph) North-Northwest (340°)
Clouds Sky clear
Altimeter30.27 in.Hg (1025 mB)
Relative humidity58 %
Density altitude-633 ft. (-193 m)
Remarks Ceiling and visibility OK
No significant changes expected in the next two hours
Flight conditions Visual Meteorological Conditions
Raw dataLKPR 262030Z 34006KT CAVOK 12/04 Q1025 NOSIG
An error has occurred. This application may no longer respond until reloaded. Reload 🗙